createdAt,value
2022-10-07T00:00:18.255Z,10.88
2022-10-07T00:02:51.636Z,10.91
2022-10-07T00:05:25.121Z,10.94
2022-10-07T00:07:58.517Z,10.96
2022-10-07T00:10:31.833Z,10.96
2022-10-07T00:13:05.324Z,10.99
2022-10-07T00:15:38.392Z,11.04
2022-10-07T00:18:12.029Z,11.04
2022-10-07T00:20:45.616Z,11.01
2022-10-07T00:23:19.094Z,11.00
2022-10-07T00:25:52.532Z,10.98
2022-10-07T00:28:27.745Z,10.98
2022-10-07T00:31:02.127Z,10.99
2022-10-07T00:33:39.598Z,10.99
2022-10-07T00:36:15.539Z,10.96
2022-10-07T00:38:52.560Z,10.92
2022-10-07T00:41:28.258Z,10.94
2022-10-07T00:44:02.333Z,10.91
2022-10-07T00:46:37.333Z,10.82
2022-10-07T00:49:13.559Z,10.72
2022-10-07T00:51:47.262Z,10.62
2022-10-07T00:54:22.380Z,10.55
2022-10-07T00:56:55.920Z,10.49
2022-10-07T00:59:29.234Z,10.44
2022-10-07T01:02:03.188Z,10.38
2022-10-07T01:04:37.226Z,10.34
2022-10-07T01:07:12.100Z,10.29
2022-10-07T01:09:48.434Z,10.25
2022-10-07T01:12:27.108Z,10.20
2022-10-07T01:15:04.010Z,10.12
2022-10-07T01:17:40.665Z,10.10
2022-10-07T01:20:27.259Z,10.07
2022-10-07T01:23:22.268Z,10.02
2022-10-07T01:26:25.256Z,9.98
2022-10-07T01:29:01.962Z,9.96
2022-10-07T01:31:38.692Z,9.90
2022-10-07T01:34:14.870Z,9.89
2022-10-07T01:36:51.110Z,9.88
2022-10-07T01:39:27.746Z,9.89
2022-10-07T01:42:01.185Z,9.85
2022-10-07T01:44:35.113Z,9.83
2022-10-07T01:47:08.514Z,9.83
2022-10-07T01:49:41.918Z,9.82
2022-10-07T01:52:24.232Z,9.80
2022-10-07T01:55:27.150Z,9.78
2022-10-07T01:58:06.368Z,9.78
2022-10-07T02:00:43.237Z,9.75
2022-10-07T02:06:13.614Z,9.89
2022-10-07T02:08:50.164Z,9.76
2022-10-07T02:11:27.474Z,9.83
2022-10-07T02:14:07.955Z,9.92
2022-10-07T02:16:46.696Z,9.97
2022-10-07T02:19:23.291Z,10.02
2022-10-07T02:21:59.545Z,10.03
2022-10-07T02:24:36.483Z,10.06
2022-10-07T02:27:14.247Z,10.00
2022-10-07T02:29:49.499Z,9.95
2022-10-07T02:32:25.555Z,9.96
2022-10-07T02:35:03.386Z,9.84
2022-10-07T02:37:39.664Z,9.80
2022-10-07T02:40:13.267Z,9.78
2022-10-07T02:42:51.906Z,9.74
2022-10-07T02:45:29.527Z,9.72
2022-10-07T02:48:05.850Z,9.69
2022-10-07T02:50:42.554Z,9.67
2022-10-07T02:53:17.537Z,9.62
2022-10-07T02:55:53.629Z,9.59
2022-10-07T02:58:28.417Z,9.54
2022-10-07T03:01:04.318Z,9.55
2022-10-07T03:03:37.737Z,9.55
2022-10-07T03:06:12.797Z,9.53
2022-10-07T03:08:48.078Z,9.52
2022-10-07T03:11:21.490Z,9.53
2022-10-07T03:13:54.984Z,9.56
2022-10-07T03:16:28.254Z,9.61
2022-10-07T03:19:01.767Z,9.69
2022-10-07T03:21:36.529Z,9.68
2022-10-07T03:24:09.988Z,9.70
2022-10-07T03:26:44.859Z,9.70
2022-10-07T03:29:19.918Z,9.69
2022-10-07T03:31:54.876Z,9.70
2022-10-07T03:34:28.690Z,9.74
2022-10-07T03:37:02.364Z,9.79
2022-10-07T03:39:35.965Z,9.88
2022-10-07T03:42:09.880Z,9.92
2022-10-07T03:44:43.865Z,9.97
2022-10-07T03:47:17.795Z,9.92
2022-10-07T03:49:52.101Z,9.87
2022-10-07T03:52:25.191Z,9.84
2022-10-07T03:54:58.770Z,9.83
2022-10-07T03:57:50.033Z,9.82
2022-10-07T04:00:24.987Z,9.77
2022-10-07T04:02:59.177Z,9.71
2022-10-07T04:05:32.806Z,9.71
2022-10-07T04:08:06.954Z,9.72
2022-10-07T04:10:40.426Z,9.71
2022-10-07T04:13:13.598Z,9.69
2022-10-07T04:15:46.977Z,9.68
2022-10-07T04:18:20.474Z,9.66
2022-10-07T04:20:55.167Z,9.66
2022-10-07T04:23:28.566Z,9.64
2022-10-07T04:26:02.008Z,9.64
2022-10-07T04:28:35.642Z,9.67
2022-10-07T04:31:14.074Z,9.67
2022-10-07T04:33:49.092Z,9.69
2022-10-07T04:36:25.416Z,9.75
2022-10-07T04:39:13.489Z,9.83
2022-10-07T04:41:48.727Z,9.99
2022-10-07T04:44:23.919Z,10.15
2022-10-07T04:47:02.398Z,10.28
2022-10-07T04:49:35.980Z,10.38
2022-10-07T04:52:13.893Z,10.44
2022-10-07T04:54:47.587Z,10.53
2022-10-07T04:57:21.427Z,10.60
2022-10-07T04:59:55.208Z,10.70
2022-10-07T05:02:28.721Z,10.73
2022-10-07T05:05:02.326Z,10.79
2022-10-07T05:07:35.744Z,10.81
2022-10-07T05:10:11.325Z,10.87
2022-10-07T05:12:45.272Z,10.93
2022-10-07T05:15:18.980Z,10.96
2022-10-07T05:17:54.493Z,10.95
2022-10-07T05:20:29.248Z,10.96
2022-10-07T05:23:03.059Z,10.91
2022-10-07T05:25:36.562Z,10.89
2022-10-07T05:28:09.990Z,10.95
2022-10-07T05:30:44.669Z,10.96
2022-10-07T05:33:19.262Z,11.01
2022-10-07T05:35:52.987Z,10.99
2022-10-07T05:38:26.297Z,10.90
2022-10-07T05:41:01.256Z,10.79
2022-10-07T05:43:38.105Z,10.66
2022-10-07T05:46:14.487Z,10.61
2022-10-07T05:48:51.273Z,10.66
2022-10-07T05:51:26.316Z,10.85
2022-10-07T05:54:01.532Z,11.21
2022-10-07T05:56:37.467Z,11.79
2022-10-07T05:59:11.997Z,12.46
2022-10-07T06:01:46.869Z,13.36
2022-10-07T06:04:22.385Z,13.99
2022-10-07T06:06:57.463Z,14.10
2022-10-07T06:09:49.102Z,14.47
2022-10-07T06:12:41.244Z,14.41
2022-10-07T06:15:16.693Z,13.91
2022-10-07T06:17:52.080Z,13.24
2022-10-07T06:20:25.492Z,12.83
2022-10-07T06:22:59.099Z,12.59
2022-10-07T06:25:32.742Z,12.38
2022-10-07T06:28:06.296Z,12.36
2022-10-07T06:30:42.240Z,12.33
2022-10-07T06:33:16.125Z,12.34
2022-10-07T06:35:50.597Z,12.19
2022-10-07T06:38:24.007Z,12.14
2022-10-07T06:41:01.568Z,12.18
2022-10-07T06:43:37.482Z,12.18
2022-10-07T06:46:15.224Z,12.20
2022-10-07T06:48:50.643Z,12.27
2022-10-07T06:51:25.301Z,12.70
2022-10-07T06:53:59.320Z,12.87
2022-10-07T06:56:32.971Z,12.95
2022-10-07T06:59:06.564Z,12.92
2022-10-07T07:01:41.797Z,12.72
2022-10-07T07:04:15.448Z,12.64
2022-10-07T07:06:48.834Z,12.51
2022-10-07T07:09:22.991Z,12.35
2022-10-07T07:11:57.880Z,12.44
2022-10-07T07:14:35.048Z,12.38
2022-10-07T07:17:10.241Z,12.35
2022-10-07T07:19:43.795Z,12.41
2022-10-07T07:22:17.018Z,12.59
2022-10-07T07:24:50.918Z,12.83
2022-10-07T07:27:24.418Z,12.98
2022-10-07T07:29:58.822Z,13.29
2022-10-07T07:32:33.834Z,13.49
2022-10-07T07:35:09.249Z,13.38
2022-10-07T07:37:43.145Z,13.54
2022-10-07T07:40:17.106Z,14.08
2022-10-07T07:42:50.826Z,15.29
2022-10-07T07:45:24.849Z,16.50
2022-10-07T07:47:58.355Z,16.22
2022-10-07T07:50:32.201Z,17.45
2022-10-07T07:53:06.496Z,18.09
2022-10-07T07:55:40.283Z,17.39
2022-10-07T07:58:13.868Z,18.09
2022-10-07T08:00:47.431Z,18.26
2022-10-07T08:03:21.224Z,16.89
2022-10-07T08:05:55.011Z,15.99
2022-10-07T08:08:28.660Z,15.45
2022-10-07T08:11:09.248Z,15.72
2022-10-07T08:13:43.714Z,15.63
2022-10-07T08:16:20.036Z,15.39
2022-10-07T08:18:55.581Z,15.07
2022-10-07T08:21:33.089Z,15.60
2022-10-07T08:24:10.044Z,15.78
2022-10-07T08:26:44.049Z,15.16
2022-10-07T08:29:19.052Z,14.58
2022-10-07T08:31:52.490Z,14.35
2022-10-07T08:34:27.066Z,14.70
2022-10-07T08:37:00.739Z,14.50
2022-10-07T08:39:34.223Z,14.34
2022-10-07T08:42:13.014Z,14.31
2022-10-07T08:44:49.019Z,14.31
2022-10-07T08:47:25.656Z,15.27
2022-10-07T08:50:04.808Z,16.14
2022-10-07T08:52:44.555Z,16.19
2022-10-07T08:55:25.589Z,16.26
2022-10-07T09:01:32.352Z,16.22
2022-10-07T09:04:12.464Z,16.03
2022-10-07T09:06:50.461Z,15.69
2022-10-07T09:09:27.634Z,16.54
2022-10-07T09:12:04.398Z,16.49
2022-10-07T09:14:40.236Z,15.95
2022-10-07T09:17:17.101Z,15.59
2022-10-07T09:19:54.660Z,15.27
2022-10-07T09:22:31.609Z,14.89
2022-10-07T09:25:19.856Z,14.68
2022-10-07T09:27:54.563Z,14.51
2022-10-07T09:30:29.644Z,14.45
2022-10-07T09:33:04.419Z,14.42
2022-10-07T09:35:38.448Z,14.54
2022-10-07T09:38:11.657Z,15.33
2022-10-07T09:41:06.317Z,17.29
2022-10-07T09:43:41.646Z,19.14
2022-10-07T09:46:18.040Z,20.39
2022-10-07T09:48:55.670Z,20.66
2022-10-07T09:51:27.878Z,19.67
2022-10-07T09:54:02.942Z,18.60
2022-10-07T09:56:39.504Z,17.56
2022-10-07T09:59:24.701Z,16.69
2022-10-07T10:01:59.843Z,16.06
2022-10-07T10:04:36.938Z,15.70
2022-10-07T10:07:19.906Z,15.41
2022-10-07T10:09:55.217Z,15.18
2022-10-07T10:12:29.318Z,15.06
2022-10-07T10:15:03.382Z,15.12
2022-10-07T10:17:41.664Z,15.03
2022-10-07T10:20:38.619Z,14.94
2022-10-07T10:23:29.386Z,15.10
2022-10-07T10:28:56.133Z,16.37
2022-10-07T10:31:33.902Z,16.98
2022-10-07T10:34:12.308Z,17.14
2022-10-07T10:36:48.264Z,17.64
2022-10-07T10:39:25.760Z,17.88
2022-10-07T10:42:01.940Z,18.00
2022-10-07T10:44:42.924Z,17.99
2022-10-07T10:47:19.658Z,18.00
2022-10-07T10:49:56.620Z,18.48
2022-10-07T10:52:45.806Z,19.34
2022-10-07T10:55:34.397Z,18.64
2022-10-07T10:58:16.061Z,18.69
2022-10-07T11:00:59.447Z,19.07
2022-10-07T11:03:36.314Z,20.47
2022-10-07T11:06:14.886Z,21.93
2022-10-07T11:08:50.363Z,21.08
2022-10-07T11:11:25.674Z,20.16
2022-10-07T11:14:02.075Z,19.45
2022-10-07T11:16:38.829Z,18.64
2022-10-07T11:19:16.562Z,18.40
2022-10-07T11:21:49.883Z,17.83
2022-10-07T11:24:26.823Z,17.45
2022-10-07T11:27:03.322Z,16.65
2022-10-07T11:29:40.069Z,16.06
2022-10-07T11:32:17.472Z,15.59
2022-10-07T11:34:54.803Z,15.27
2022-10-07T11:37:31.594Z,14.99
2022-10-07T11:40:07.582Z,14.75
2022-10-07T11:42:46.036Z,14.63
2022-10-07T11:45:23.097Z,14.52
2022-10-07T11:47:59.516Z,14.47
2022-10-07T11:50:35.779Z,14.34
2022-10-07T11:53:11.671Z,14.18
2022-10-07T11:55:51.577Z,14.18
2022-10-07T11:58:29.400Z,14.26
2022-10-07T12:01:34.817Z,14.46
2022-10-07T12:04:46.188Z,14.45
2022-10-07T12:07:41.192Z,14.32
2022-10-07T12:13:46.514Z,14.24
2022-10-07T12:16:45.051Z,14.11
2022-10-07T12:19:23.486Z,14.15
2022-10-07T12:22:21.638Z,14.24
2022-10-07T12:25:38.320Z,14.25
2022-10-07T12:28:19.021Z,14.26
2022-10-07T12:30:54.927Z,14.25
2022-10-07T12:33:32.197Z,14.31
2022-10-07T12:36:27.960Z,14.34
2022-10-07T12:39:35.464Z,14.31
2022-10-07T12:42:14.118Z,14.25
2022-10-07T12:44:51.403Z,14.17
2022-10-07T12:47:28.282Z,14.16
2022-10-07T12:50:04.922Z,14.14
2022-10-07T12:52:41.307Z,14.06
2022-10-07T12:55:19.533Z,13.98
2022-10-07T12:57:57.604Z,14.28
2022-10-07T13:00:32.858Z,14.30
2022-10-07T13:03:34.664Z,14.21
2022-10-07T13:06:39.579Z,14.17
2022-10-07T13:09:34.310Z,14.07
2022-10-07T13:12:23.266Z,13.94
2022-10-07T13:15:07.306Z,13.91
2022-10-07T13:17:47.540Z,13.87
2022-10-07T13:20:36.831Z,13.99
2022-10-07T13:23:20.906Z,13.92
2022-10-07T13:25:56.580Z,13.83
2022-10-07T13:28:34.227Z,13.73
2022-10-07T13:31:21.324Z,13.69
2022-10-07T13:33:56.126Z,13.64
2022-10-07T13:36:32.595Z,13.59
2022-10-07T13:39:21.822Z,13.53
2022-10-07T13:41:58.271Z,13.54
2022-10-07T13:44:33.357Z,13.54
2022-10-07T13:47:10.284Z,13.53
2022-10-07T13:49:47.211Z,13.48
2022-10-07T13:52:24.140Z,13.48
2022-10-07T13:54:57.665Z,13.41
2022-10-07T13:57:35.265Z,13.42
2022-10-07T14:00:12.773Z,13.43
2022-10-07T14:02:47.082Z,13.42
2022-10-07T14:05:24.057Z,13.42
2022-10-07T14:07:59.184Z,13.43
2022-10-07T14:10:34.851Z,13.33
2022-10-07T14:13:09.783Z,13.18
2022-10-07T14:18:27.681Z,13.13
2022-10-07T14:21:13.072Z,12.98
2022-10-07T14:23:48.391Z,12.97
2022-10-07T14:26:21.917Z,13.02
2022-10-07T14:28:55.182Z,13.09
2022-10-07T14:31:46.734Z,13.08
2022-10-07T14:34:38.908Z,12.99
2022-10-07T14:37:15.855Z,12.82
2022-10-07T14:39:50.849Z,12.61
2022-10-07T14:42:26.334Z,12.45
2022-10-07T14:45:01.743Z,12.31
2022-10-07T14:47:37.015Z,12.19
2022-10-07T14:50:13.013Z,12.10
2022-10-07T14:52:49.427Z,11.98
2022-10-07T14:55:25.956Z,11.90
2022-10-07T14:57:59.236Z,11.90
2022-10-07T15:00:38.710Z,11.86
2022-10-07T15:03:08.728Z,11.87
2022-10-07T15:05:42.305Z,11.84
2022-10-07T15:08:16.158Z,11.81
2022-10-07T15:10:49.532Z,11.73
2022-10-07T15:13:23.217Z,11.65
2022-10-07T15:15:56.734Z,11.60
2022-10-07T15:18:30.401Z,11.57
2022-10-07T15:21:04.261Z,11.53
2022-10-07T15:23:37.618Z,11.49
2022-10-07T15:26:12.110Z,11.46
2022-10-07T15:28:45.295Z,11.43
2022-10-07T15:31:19.140Z,11.40
2022-10-07T15:33:54.432Z,11.38
2022-10-07T15:36:29.526Z,11.30
2022-10-07T15:39:03.338Z,11.26
2022-10-07T15:41:39.213Z,11.21
2022-10-07T15:44:16.281Z,11.13
2022-10-07T15:46:51.311Z,11.09
2022-10-07T15:49:24.336Z,11.07
2022-10-07T15:51:57.931Z,11.00
2022-10-07T15:54:32.053Z,10.98
2022-10-07T15:57:05.896Z,10.93
2022-10-07T15:59:39.434Z,10.90
2022-10-07T16:02:16.160Z,10.88
2022-10-07T16:04:49.802Z,10.87
2022-10-07T16:07:24.123Z,10.85
2022-10-07T16:09:57.648Z,10.84
2022-10-07T16:12:31.141Z,10.85
2022-10-07T16:15:06.504Z,10.90
2022-10-07T16:17:40.131Z,10.90
2022-10-07T16:20:15.528Z,10.90
2022-10-07T16:22:49.001Z,10.90
2022-10-07T16:25:22.427Z,10.87
2022-10-07T16:28:13.230Z,10.86
2022-10-07T16:30:48.949Z,10.84
2022-10-07T16:33:22.762Z,10.82
2022-10-07T16:35:56.264Z,10.76
2022-10-07T16:38:29.863Z,10.77
2022-10-07T16:41:03.487Z,10.72
2022-10-07T16:43:36.766Z,10.67
2022-10-07T16:46:14.050Z,10.65
2022-10-07T16:48:48.817Z,10.60
2022-10-07T16:51:24.232Z,10.57
2022-10-07T16:54:01.667Z,10.57
2022-10-07T16:56:37.099Z,10.53
2022-10-07T16:59:12.203Z,10.50
2022-10-07T17:01:45.721Z,10.49
2022-10-07T17:04:19.778Z,10.47
2022-10-07T17:06:53.221Z,10.45
2022-10-07T17:09:26.710Z,10.43
2022-10-07T17:12:00.162Z,10.40
2022-10-07T17:14:34.195Z,10.39
2022-10-07T17:17:08.026Z,10.37
2022-10-07T17:19:41.594Z,10.33
2022-10-07T17:22:15.303Z,10.30
2022-10-07T17:24:48.814Z,10.28
2022-10-07T17:27:22.493Z,10.24
2022-10-07T17:29:55.998Z,10.23
2022-10-07T17:32:29.583Z,10.22
2022-10-07T17:35:03.144Z,10.16
2022-10-07T17:37:36.539Z,10.10
2022-10-07T17:40:11.867Z,10.08
2022-10-07T17:42:45.643Z,10.04
2022-10-07T17:45:19.137Z,10.01
2022-10-07T17:47:53.434Z,9.96
2022-10-07T17:50:26.807Z,9.92
2022-10-07T17:53:00.913Z,9.90
2022-10-07T17:55:34.501Z,9.85
2022-10-07T17:58:12.933Z,9.82
2022-10-07T18:00:47.539Z,9.79
2022-10-07T18:03:24.390Z,9.74
2022-10-07T18:05:58.392Z,9.73
2022-10-07T18:08:33.341Z,9.68
2022-10-07T18:11:11.484Z,9.67
2022-10-07T18:14:04.892Z,9.65
2022-10-07T18:16:39.830Z,9.64
2022-10-07T18:19:19.516Z,9.57
2022-10-07T18:21:53.115Z,9.56
2022-10-07T18:24:29.950Z,9.54
2022-10-07T18:27:06.783Z,9.53
2022-10-07T18:29:50.524Z,9.52
2022-10-07T18:32:24.659Z,9.49
2022-10-07T18:34:59.034Z,9.49
2022-10-07T18:40:28.931Z,9.43
2022-10-07T18:43:06.965Z,9.46
2022-10-07T18:45:59.013Z,9.45
